sensor_id;sensor_type;location;lat;lon;timestamp;P1;durP1;ratioP1;P2;durP2;ratioP2
23884;SDS011;12123;53.088;7.392;2022-12-07T00:01:26;32.45;;;15.40;;
23884;SDS011;12123;53.088;7.392;2022-12-07T00:03:54;38.95;;;17.27;;
23884;SDS011;12123;53.088;7.392;2022-12-07T00:06:31;39.92;;;16.75;;
23884;SDS011;12123;53.088;7.392;2022-12-07T00:08:59;32.72;;;15.68;;
23884;SDS011;12123;53.088;7.392;2022-12-07T00:11:26;34.97;;;16.90;;
23884;SDS011;12123;53.088;7.392;2022-12-07T00:13:54;37.92;;;15.57;;
23884;SDS011;12123;53.088;7.392;2022-12-07T00:16:22;32.75;;;15.25;;
23884;SDS011;12123;53.088;7.392;2022-12-07T00:18:50;32.80;;;15.60;;
23884;SDS011;12123;53.088;7.392;2022-12-07T00:21:18;36.30;;;16.13;;
23884;SDS011;12123;53.088;7.392;2022-12-07T00:23:46;35.58;;;16.00;;
23884;SDS011;12123;53.088;7.392;2022-12-07T00:26:16;28.08;;;14.40;;
23884;SDS011;12123;53.088;7.392;2022-12-07T00:28:51;28.95;;;13.77;;
23884;SDS011;12123;53.088;7.392;2022-12-07T00:31:20;31.58;;;15.70;;
23884;SDS011;12123;53.088;7.392;2022-12-07T00:33:47;41.92;;;15.07;;
23884;SDS011;12123;53.088;7.392;2022-12-07T00:36:16;29.83;;;13.75;;
23884;SDS011;12123;53.088;7.392;2022-12-07T00:38:51;36.10;;;14.88;;
23884;SDS011;12123;53.088;7.392;2022-12-07T00:41:19;32.42;;;15.10;;
23884;SDS011;12123;53.088;7.392;2022-12-07T00:43:47;31.65;;;15.80;;
23884;SDS011;12123;53.088;7.392;2022-12-07T00:46:15;34.63;;;16.20;;
23884;SDS011;12123;53.088;7.392;2022-12-07T00:48:42;36.85;;;15.48;;
23884;SDS011;12123;53.088;7.392;2022-12-07T00:51:10;31.00;;;14.88;;
23884;SDS011;12123;53.088;7.392;2022-12-07T00:53:38;31.65;;;14.20;;
23884;SDS011;12123;53.088;7.392;2022-12-07T00:56:08;32.20;;;14.60;;
23884;SDS011;12123;53.088;7.392;2022-12-07T00:58:35;34.35;;;12.50;;
23884;SDS011;12123;53.088;7.392;2022-12-07T01:01:03;31.10;;;14.77;;
23884;SDS011;12123;53.088;7.392;2022-12-07T01:03:30;26.77;;;12.07;;
23884;SDS011;12123;53.088;7.392;2022-12-07T01:05:58;27.00;;;11.85;;
23884;SDS011;12123;53.088;7.392;2022-12-07T01:08:25;21.58;;;9.90;;
23884;SDS011;12123;53.088;7.392;2022-12-07T01:13:26;19.13;;;9.35;;
23884;SDS011;12123;53.088;7.392;2022-12-07T01:15:56;19.08;;;7.60;;
23884;SDS011;12123;53.088;7.392;2022-12-07T01:18:24;12.60;;;7.18;;
23884;SDS011;12123;53.088;7.392;2022-12-07T01:23:51;11.68;;;5.22;;
23884;SDS011;12123;53.088;7.392;2022-12-07T01:26:20;11.35;;;4.85;;
23884;SDS011;12123;53.088;7.392;2022-12-07T01:28:48;15.63;;;5.07;;
23884;SDS011;12123;53.088;7.392;2022-12-07T01:31:16;16.60;;;4.22;;
23884;SDS011;12123;53.088;7.392;2022-12-07T01:33:45;9.25;;;3.50;;
23884;SDS011;12123;53.088;7.392;2022-12-07T01:38:43;17.75;;;3.83;;
23884;SDS011;12123;53.088;7.392;2022-12-07T01:41:11;8.80;;;2.72;;
23884;SDS011;12123;53.088;7.392;2022-12-07T01:44:07;10.70;;;3.15;;
23884;SDS011;12123;53.088;7.392;2022-12-07T01:46:28;13.43;;;2.70;;
23884;SDS011;12123;53.088;7.392;2022-12-07T01:48:56;9.27;;;2.70;;
23884;SDS011;12123;53.088;7.392;2022-12-07T01:51:23;8.30;;;2.53;;
23884;SDS011;12123;53.088;7.392;2022-12-07T01:53:50;5.90;;;1.90;;
23884;SDS011;12123;53.088;7.392;2022-12-07T01:56:18;7.32;;;1.80;;
23884;SDS011;12123;53.088;7.392;2022-12-07T01:58:47;11.63;;;2.53;;
23884;SDS011;12123;53.088;7.392;2022-12-07T02:01:14;9.43;;;1.83;;
23884;SDS011;12123;53.088;7.392;2022-12-07T02:03:43;8.00;;;1.77;;
23884;SDS011;12123;53.088;7.392;2022-12-07T02:06:12;7.43;;;1.63;;
23884;SDS011;12123;53.088;7.392;2022-12-07T02:08:40;7.22;;;1.60;;
23884;SDS011;12123;53.088;7.392;2022-12-07T02:11:08;6.85;;;1.80;;
23884;SDS011;12123;53.088;7.392;2022-12-07T02:13:37;4.18;;;1.25;;
23884;SDS011;12123;53.088;7.392;2022-12-07T02:16:17;10.88;;;1.65;;
23884;SDS011;12123;53.088;7.392;2022-12-07T02:21:20;11.48;;;1.73;;
23884;SDS011;12123;53.088;7.392;2022-12-07T02:31:30;7.45;;;1.25;;
23884;SDS011;12123;53.088;7.392;2022-12-07T02:34:05;9.25;;;1.70;;
23884;SDS011;12123;53.088;7.392;2022-12-07T02:36:37;8.80;;;1.35;;
23884;SDS011;12123;53.088;7.392;2022-12-07T02:39:17;8.35;;;1.58;;
23884;SDS011;12123;53.088;7.392;2022-12-07T02:41:47;9.85;;;1.23;;
23884;SDS011;12123;53.088;7.392;2022-12-07T02:44:20;11.13;;;2.42;;
23884;SDS011;12123;53.088;7.392;2022-12-07T02:46:59;8.55;;;1.45;;
23884;SDS011;12123;53.088;7.392;2022-12-07T02:49:27;7.25;;;1.65;;
23884;SDS011;12123;53.088;7.392;2022-12-07T02:51:55;7.57;;;1.85;;
23884;SDS011;12123;53.088;7.392;2022-12-07T02:54:22;7.90;;;1.08;;
23884;SDS011;12123;53.088;7.392;2022-12-07T02:56:51;9.90;;;1.25;;
23884;SDS011;12123;53.088;7.392;2022-12-07T03:04:46;9.60;;;1.38;;
23884;SDS011;12123;53.088;7.392;2022-12-07T03:09:54;6.15;;;1.50;;
23884;SDS011;12123;53.088;7.392;2022-12-07T03:15:26;8.25;;;1.52;;
23884;SDS011;12123;53.088;7.392;2022-12-07T03:17:55;5.32;;;1.15;;
23884;SDS011;12123;53.088;7.392;2022-12-07T03:20:24;7.38;;;1.77;;
23884;SDS011;12123;53.088;7.392;2022-12-07T03:22:52;16.30;;;3.55;;
23884;SDS011;12123;53.088;7.392;2022-12-07T03:25:20;4.32;;;0.88;;
23884;SDS011;12123;53.088;7.392;2022-12-07T03:27:53;3.25;;;1.05;;
23884;SDS011;12123;53.088;7.392;2022-12-07T03:30:23;6.03;;;1.17;;
23884;SDS011;12123;53.088;7.392;2022-12-07T03:32:59;4.22;;;1.08;;
23884;SDS011;12123;53.088;7.392;2022-12-07T03:35:29;2.17;;;0.73;;
23884;SDS011;12123;53.088;7.392;2022-12-07T03:37:59;3.35;;;0.80;;
23884;SDS011;12123;53.088;7.392;2022-12-07T03:40:34;4.78;;;1.25;;
23884;SDS011;12123;53.088;7.392;2022-12-07T03:43:02;2.03;;;0.75;;
23884;SDS011;12123;53.088;7.392;2022-12-07T03:45:40;3.95;;;1.27;;
23884;SDS011;12123;53.088;7.392;2022-12-07T03:50:43;8.18;;;1.10;;
23884;SDS011;12123;53.088;7.392;2022-12-07T03:53:14;10.10;;;1.30;;
23884;SDS011;12123;53.088;7.392;2022-12-07T03:55:42;4.78;;;1.13;;
23884;SDS011;12123;53.088;7.392;2022-12-07T03:58:13;4.43;;;1.13;;
23884;SDS011;12123;53.088;7.392;2022-12-07T04:00:42;5.85;;;1.00;;
23884;SDS011;12123;53.088;7.392;2022-12-07T04:03:10;6.80;;;1.25;;
23884;SDS011;12123;53.088;7.392;2022-12-07T04:05:38;7.13;;;1.40;;
23884;SDS011;12123;53.088;7.392;2022-12-07T04:08:05;7.25;;;1.25;;
23884;SDS011;12123;53.088;7.392;2022-12-07T04:10:33;9.75;;;1.50;;
23884;SDS011;12123;53.088;7.392;2022-12-07T04:13:00;9.75;;;1.90;;
23884;SDS011;12123;53.088;7.392;2022-12-07T04:15:27;8.45;;;1.25;;
23884;SDS011;12123;53.088;7.392;2022-12-07T04:17:55;5.85;;;0.85;;
23884;SDS011;12123;53.088;7.392;2022-12-07T04:20:22;6.03;;;1.10;;
23884;SDS011;12123;53.088;7.392;2022-12-07T04:22:49;6.97;;;1.35;;
23884;SDS011;12123;53.088;7.392;2022-12-07T04:25:16;7.63;;;1.73;;
23884;SDS011;12123;53.088;7.392;2022-12-07T04:27:43;7.30;;;1.13;;
23884;SDS011;12123;53.088;7.392;2022-12-07T04:30:11;7.68;;;1.65;;
23884;SDS011;12123;53.088;7.392;2022-12-07T04:32:38;3.50;;;0.77;;
23884;SDS011;12123;53.088;7.392;2022-12-07T04:35:05;5.63;;;0.85;;
23884;SDS011;12123;53.088;7.392;2022-12-07T04:37:32;8.13;;;0.90;;
23884;SDS011;12123;53.088;7.392;2022-12-07T04:40:00;4.82;;;0.93;;
23884;SDS011;12123;53.088;7.392;2022-12-07T04:42:27;4.70;;;1.05;;
23884;SDS011;12123;53.088;7.392;2022-12-07T04:44:54;7.60;;;1.38;;
23884;SDS011;12123;53.088;7.392;2022-12-07T04:47:22;8.32;;;1.20;;
23884;SDS011;12123;53.088;7.392;2022-12-07T04:49:49;5.38;;;1.15;;
23884;SDS011;12123;53.088;7.392;2022-12-07T04:52:16;10.57;;;1.38;;
23884;SDS011;12123;53.088;7.392;2022-12-07T04:54:43;7.50;;;1.08;;
23884;SDS011;12123;53.088;7.392;2022-12-07T04:57:10;6.85;;;1.20;;
23884;SDS011;12123;53.088;7.392;2022-12-07T04:59:37;8.95;;;1.30;;
23884;SDS011;12123;53.088;7.392;2022-12-07T05:02:10;10.45;;;1.52;;
23884;SDS011;12123;53.088;7.392;2022-12-07T05:04:38;6.82;;;1.33;;
23884;SDS011;12123;53.088;7.392;2022-12-07T05:07:05;3.80;;;1.05;;
23884;SDS011;12123;53.088;7.392;2022-12-07T05:09:32;9.95;;;1.48;;
23884;SDS011;12123;53.088;7.392;2022-12-07T05:11:59;12.90;;;2.03;;
23884;SDS011;12123;53.088;7.392;2022-12-07T05:14:26;8.52;;;1.15;;
23884;SDS011;12123;53.088;7.392;2022-12-07T05:16:54;7.95;;;1.55;;
23884;SDS011;12123;53.088;7.392;2022-12-07T05:19:21;6.10;;;1.02;;
23884;SDS011;12123;53.088;7.392;2022-12-07T05:21:48;8.32;;;1.90;;
23884;SDS011;12123;53.088;7.392;2022-12-07T05:24:15;6.30;;;1.10;;
23884;SDS011;12123;53.088;7.392;2022-12-07T05:26:43;10.60;;;1.30;;
23884;SDS011;12123;53.088;7.392;2022-12-07T05:29:12;10.48;;;1.38;;
23884;SDS011;12123;53.088;7.392;2022-12-07T05:31:39;6.22;;;1.00;;
23884;SDS011;12123;53.088;7.392;2022-12-07T05:34:06;3.40;;;1.25;;
23884;SDS011;12123;53.088;7.392;2022-12-07T05:36:33;4.65;;;1.23;;
23884;SDS011;12123;53.088;7.392;2022-12-07T05:39:01;10.02;;;1.25;;
23884;SDS011;12123;53.088;7.392;2022-12-07T05:41:28;9.95;;;1.27;;
23884;SDS011;12123;53.088;7.392;2022-12-07T05:44:13;6.05;;;1.30;;
23884;SDS011;12123;53.088;7.392;2022-12-07T05:46:41;7.65;;;0.98;;
23884;SDS011;12123;53.088;7.392;2022-12-07T05:49:08;4.90;;;1.13;;
23884;SDS011;12123;53.088;7.392;2022-12-07T05:51:35;10.73;;;1.05;;
23884;SDS011;12123;53.088;7.392;2022-12-07T05:54:02;5.25;;;1.02;;
23884;SDS011;12123;53.088;7.392;2022-12-07T05:56:30;14.73;;;1.88;;
23884;SDS011;12123;53.088;7.392;2022-12-07T05:58:57;7.07;;;0.90;;
23884;SDS011;12123;53.088;7.392;2022-12-07T06:01:43;8.05;;;1.15;;
23884;SDS011;12123;53.088;7.392;2022-12-07T06:04:10;9.18;;;1.33;;
23884;SDS011;12123;53.088;7.392;2022-12-07T06:06:37;9.85;;;1.30;;
23884;SDS011;12123;53.088;7.392;2022-12-07T06:09:05;7.05;;;1.30;;
23884;SDS011;12123;53.088;7.392;2022-12-07T06:11:32;13.75;;;1.30;;
23884;SDS011;12123;53.088;7.392;2022-12-07T06:14:18;4.95;;;1.48;;
23884;SDS011;12123;53.088;7.392;2022-12-07T06:16:46;11.95;;;1.33;;
23884;SDS011;12123;53.088;7.392;2022-12-07T06:19:13;13.00;;;3.00;;
23884;SDS011;12123;53.088;7.392;2022-12-07T06:21:40;8.48;;;1.60;;
23884;SDS011;12123;53.088;7.392;2022-12-07T06:24:08;11.68;;;1.80;;
23884;SDS011;12123;53.088;7.392;2022-12-07T06:26:37;6.75;;;1.50;;
23884;SDS011;12123;53.088;7.392;2022-12-07T06:29:04;9.68;;;1.35;;
23884;SDS011;12123;53.088;7.392;2022-12-07T06:31:31;4.15;;;1.35;;
23884;SDS011;12123;53.088;7.392;2022-12-07T06:33:59;6.40;;;2.10;;
23884;SDS011;12123;53.088;7.392;2022-12-07T06:36:26;6.90;;;1.10;;
23884;SDS011;12123;53.088;7.392;2022-12-07T06:38:54;6.90;;;1.88;;
23884;SDS011;12123;53.088;7.392;2022-12-07T06:41:21;5.45;;;1.30;;
23884;SDS011;12123;53.088;7.392;2022-12-07T06:43:48;3.78;;;0.95;;
23884;SDS011;12123;53.088;7.392;2022-12-07T06:46:21;9.23;;;1.58;;
23884;SDS011;12123;53.088;7.392;2022-12-07T06:48:48;7.97;;;1.20;;
23884;SDS011;12123;53.088;7.392;2022-12-07T06:51:16;18.20;;;1.63;;
23884;SDS011;12123;53.088;7.392;2022-12-07T06:53:43;8.35;;;1.15;;
23884;SDS011;12123;53.088;7.392;2022-12-07T06:56:10;5.82;;;1.45;;
23884;SDS011;12123;53.088;7.392;2022-12-07T06:58:38;11.43;;;1.40;;
23884;SDS011;12123;53.088;7.392;2022-12-07T07:01:09;8.50;;;1.30;;
23884;SDS011;12123;53.088;7.392;2022-12-07T07:03:36;6.60;;;1.60;;
23884;SDS011;12123;53.088;7.392;2022-12-07T07:06:04;9.38;;;1.35;;
23884;SDS011;12123;53.088;7.392;2022-12-07T07:08:31;16.73;;;1.95;;
23884;SDS011;12123;53.088;7.392;2022-12-07T07:10:59;9.85;;;1.90;;
23884;SDS011;12123;53.088;7.392;2022-12-07T07:13:26;4.40;;;1.40;;
23884;SDS011;12123;53.088;7.392;2022-12-07T07:15:54;12.40;;;2.10;;
23884;SDS011;12123;53.088;7.392;2022-12-07T07:18:21;15.48;;;2.50;;
23884;SDS011;12123;53.088;7.392;2022-12-07T07:20:49;7.72;;;1.80;;
23884;SDS011;12123;53.088;7.392;2022-12-07T07:23:16;13.43;;;2.10;;
23884;SDS011;12123;53.088;7.392;2022-12-07T07:25:44;6.13;;;2.08;;
23884;SDS011;12123;53.088;7.392;2022-12-07T07:28:11;11.52;;;3.15;;
23884;SDS011;12123;53.088;7.392;2022-12-07T07:30:38;3.70;;;1.90;;
23884;SDS011;12123;53.088;7.392;2022-12-07T07:33:06;8.57;;;2.22;;
23884;SDS011;12123;53.088;7.392;2022-12-07T07:35:33;7.03;;;2.83;;
23884;SDS011;12123;53.088;7.392;2022-12-07T07:38:01;10.45;;;2.17;;
23884;SDS011;12123;53.088;7.392;2022-12-07T07:40:29;7.43;;;2.55;;
23884;SDS011;12123;53.088;7.392;2022-12-07T07:42:56;8.77;;;3.00;;
23884;SDS011;12123;53.088;7.392;2022-12-07T07:45:24;9.35;;;2.65;;
23884;SDS011;12123;53.088;7.392;2022-12-07T07:47:52;14.88;;;3.60;;
23884;SDS011;12123;53.088;7.392;2022-12-07T07:50:20;8.95;;;2.58;;
23884;SDS011;12123;53.088;7.392;2022-12-07T07:52:47;14.85;;;2.78;;
23884;SDS011;12123;53.088;7.392;2022-12-07T07:55:14;10.73;;;2.50;;
23884;SDS011;12123;53.088;7.392;2022-12-07T07:57:42;8.90;;;2.80;;
23884;SDS011;12123;53.088;7.392;2022-12-07T08:00:16;14.07;;;3.30;;
23884;SDS011;12123;53.088;7.392;2022-12-07T08:02:43;11.32;;;2.58;;
23884;SDS011;12123;53.088;7.392;2022-12-07T08:05:12;11.35;;;3.58;;
23884;SDS011;12123;53.088;7.392;2022-12-07T08:07:40;11.40;;;2.60;;
23884;SDS011;12123;53.088;7.392;2022-12-07T08:10:08;8.02;;;2.05;;
23884;SDS011;12123;53.088;7.392;2022-12-07T08:12:37;10.43;;;2.35;;
23884;SDS011;12123;53.088;7.392;2022-12-07T08:15:24;9.02;;;2.25;;
23884;SDS011;12123;53.088;7.392;2022-12-07T08:17:52;14.55;;;2.45;;
23884;SDS011;12123;53.088;7.392;2022-12-07T08:20:19;10.38;;;2.47;;
23884;SDS011;12123;53.088;7.392;2022-12-07T08:22:47;13.35;;;2.60;;
23884;SDS011;12123;53.088;7.392;2022-12-07T08:25:14;10.18;;;1.92;;
23884;SDS011;12123;53.088;7.392;2022-12-07T08:27:41;10.07;;;2.08;;
23884;SDS011;12123;53.088;7.392;2022-12-07T08:30:08;10.95;;;2.30;;
23884;SDS011;12123;53.088;7.392;2022-12-07T08:32:36;13.52;;;4.05;;
23884;SDS011;12123;53.088;7.392;2022-12-07T08:35:03;13.65;;;2.97;;
23884;SDS011;12123;53.088;7.392;2022-12-07T08:37:31;10.93;;;2.00;;
23884;SDS011;12123;53.088;7.392;2022-12-07T08:39:58;7.38;;;1.98;;
23884;SDS011;12123;53.088;7.392;2022-12-07T08:42:26;13.13;;;2.42;;
23884;SDS011;12123;53.088;7.392;2022-12-07T08:44:56;8.57;;;2.08;;
23884;SDS011;12123;53.088;7.392;2022-12-07T08:47:23;6.47;;;2.35;;
23884;SDS011;12123;53.088;7.392;2022-12-07T08:49:51;9.10;;;2.63;;
23884;SDS011;12123;53.088;7.392;2022-12-07T08:52:19;11.82;;;2.40;;
23884;SDS011;12123;53.088;7.392;2022-12-07T08:54:46;10.15;;;2.17;;
23884;SDS011;12123;53.088;7.392;2022-12-07T08:57:13;9.35;;;2.33;;
23884;SDS011;12123;53.088;7.392;2022-12-07T08:59:41;8.45;;;2.58;;
23884;SDS011;12123;53.088;7.392;2022-12-07T09:02:08;12.60;;;3.42;;
23884;SDS011;12123;53.088;7.392;2022-12-07T09:04:35;14.63;;;2.80;;
23884;SDS011;12123;53.088;7.392;2022-12-07T09:07:02;8.07;;;2.20;;
23884;SDS011;12123;53.088;7.392;2022-12-07T09:09:30;16.23;;;2.17;;
23884;SDS011;12123;53.088;7.392;2022-12-07T09:11:57;13.25;;;2.30;;
23884;SDS011;12123;53.088;7.392;2022-12-07T09:14:24;9.30;;;1.98;;
23884;SDS011;12123;53.088;7.392;2022-12-07T09:16:52;11.10;;;2.40;;
23884;SDS011;12123;53.088;7.392;2022-12-07T09:19:19;7.30;;;2.08;;
23884;SDS011;12123;53.088;7.392;2022-12-07T09:21:46;14.30;;;2.30;;
23884;SDS011;12123;53.088;7.392;2022-12-07T09:24:13;8.55;;;2.08;;
23884;SDS011;12123;53.088;7.392;2022-12-07T09:26:40;8.65;;;1.95;;
23884;SDS011;12123;53.088;7.392;2022-12-07T09:29:08;12.70;;;2.30;;
23884;SDS011;12123;53.088;7.392;2022-12-07T09:31:35;10.10;;;2.30;;
23884;SDS011;12123;53.088;7.392;2022-12-07T09:34:03;11.43;;;1.80;;
23884;SDS011;12123;53.088;7.392;2022-12-07T09:36:31;7.32;;;1.45;;
23884;SDS011;12123;53.088;7.392;2022-12-07T09:38:59;11.45;;;1.67;;
23884;SDS011;12123;53.088;7.392;2022-12-07T09:41:27;10.90;;;2.38;;
23884;SDS011;12123;53.088;7.392;2022-12-07T09:43:56;8.95;;;1.70;;
23884;SDS011;12123;53.088;7.392;2022-12-07T09:46:25;12.02;;;2.03;;
23884;SDS011;12123;53.088;7.392;2022-12-07T09:48:52;6.68;;;1.70;;
23884;SDS011;12123;53.088;7.392;2022-12-07T09:51:20;8.35;;;1.90;;
23884;SDS011;12123;53.088;7.392;2022-12-07T09:53:54;15.05;;;1.92;;
23884;SDS011;12123;53.088;7.392;2022-12-07T09:56:22;4.93;;;1.40;;
23884;SDS011;12123;53.088;7.392;2022-12-07T09:58:51;8.82;;;1.95;;
23884;SDS011;12123;53.088;7.392;2022-12-07T10:01:21;8.07;;;1.45;;
23884;SDS011;12123;53.088;7.392;2022-12-07T10:03:53;6.10;;;1.27;;
23884;SDS011;12123;53.088;7.392;2022-12-07T10:06:21;4.38;;;1.80;;
23884;SDS011;12123;53.088;7.392;2022-12-07T10:08:48;6.10;;;1.38;;
23884;SDS011;12123;53.088;7.392;2022-12-07T10:11:15;10.43;;;1.67;;
23884;SDS011;12123;53.088;7.392;2022-12-07T10:13:44;9.13;;;1.50;;
23884;SDS011;12123;53.088;7.392;2022-12-07T10:19:17;6.35;;;1.45;;
23884;SDS011;12123;53.088;7.392;2022-12-07T10:24:31;8.05;;;1.30;;
23884;SDS011;12123;53.088;7.392;2022-12-07T10:26:58;8.90;;;1.83;;
23884;SDS011;12123;53.088;7.392;2022-12-07T10:29:35;4.07;;;1.10;;
23884;SDS011;12123;53.088;7.392;2022-12-07T10:32:04;6.97;;;1.33;;
23884;SDS011;12123;53.088;7.392;2022-12-07T10:34:36;7.07;;;1.15;;
23884;SDS011;12123;53.088;7.392;2022-12-07T10:42:19;16.90;;;2.78;;
23884;SDS011;12123;53.088;7.392;2022-12-07T10:44:47;13.65;;;2.83;;
23884;SDS011;12123;53.088;7.392;2022-12-07T10:47:29;15.20;;;2.05;;
23884;SDS011;12123;53.088;7.392;2022-12-07T10:50:07;4.10;;;1.13;;
23884;SDS011;12123;53.088;7.392;2022-12-07T11:00:33;8.50;;;1.33;;
23884;SDS011;12123;53.088;7.392;2022-12-07T11:03:17;8.85;;;2.15;;
23884;SDS011;12123;53.088;7.392;2022-12-07T11:11:05;6.63;;;1.20;;
23884;SDS011;12123;53.088;7.392;2022-12-07T11:16:48;6.60;;;1.48;;
23884;SDS011;12123;53.088;7.392;2022-12-07T11:22:09;19.83;;;2.42;;
23884;SDS011;12123;53.088;7.392;2022-12-07T11:24:50;7.85;;;2.00;;
23884;SDS011;12123;53.088;7.392;2022-12-07T11:30:08;6.75;;;1.50;;
23884;SDS011;12123;53.088;7.392;2022-12-07T11:37:58;7.15;;;1.23;;
23884;SDS011;12123;53.088;7.392;2022-12-07T11:40:30;8.05;;;1.40;;
23884;SDS011;12123;53.088;7.392;2022-12-07T11:43:09;8.10;;;0.90;;
23884;SDS011;12123;53.088;7.392;2022-12-07T11:45:44;8.88;;;1.90;;
23884;SDS011;12123;53.088;7.392;2022-12-07T11:48:24;7.80;;;1.48;;
23884;SDS011;12123;53.088;7.392;2022-12-07T11:50:56;5.10;;;1.40;;
23884;SDS011;12123;53.088;7.392;2022-12-07T11:56:00;9.05;;;2.20;;
23884;SDS011;12123;53.088;7.392;2022-12-07T12:03:55;9.05;;;1.77;;
23884;SDS011;12123;53.088;7.392;2022-12-07T12:06:23;6.75;;;1.17;;
23884;SDS011;12123;53.088;7.392;2022-12-07T12:08:55;10.00;;;2.33;;
23884;SDS011;12123;53.088;7.392;2022-12-07T12:22:50;12.75;;;2.58;;
23884;SDS011;12123;53.088;7.392;2022-12-07T12:25:28;8.32;;;1.70;;
23884;SDS011;12123;53.088;7.392;2022-12-07T12:27:57;9.05;;;2.22;;
23884;SDS011;12123;53.088;7.392;2022-12-07T12:30:29;7.97;;;2.10;;
23884;SDS011;12123;53.088;7.392;2022-12-07T12:33:30;11.30;;;2.00;;
23884;SDS011;12123;53.088;7.392;2022-12-07T12:49:30;7.05;;;1.38;;
23884;SDS011;12123;53.088;7.392;2022-12-07T12:52:00;9.35;;;1.30;;
23884;SDS011;12123;53.088;7.392;2022-12-07T12:54:30;9.38;;;1.58;;
23884;SDS011;12123;53.088;7.392;2022-12-07T12:57:15;10.20;;;1.35;;
23884;SDS011;12123;53.088;7.392;2022-12-07T13:04:58;6.93;;;1.40;;
23884;SDS011;12123;53.088;7.392;2022-12-07T13:23:09;2.78;;;1.40;;
23884;SDS011;12123;53.088;7.392;2022-12-07T13:25:37;2.83;;;1.20;;
23884;SDS011;12123;53.088;7.392;2022-12-07T13:28:18;6.53;;;1.25;;
23884;SDS011;12123;53.088;7.392;2022-12-07T13:30:47;6.18;;;1.48;;
23884;SDS011;12123;53.088;7.392;2022-12-07T13:33:17;7.95;;;1.38;;
23884;SDS011;12123;53.088;7.392;2022-12-07T13:35:45;9.25;;;1.52;;
23884;SDS011;12123;53.088;7.392;2022-12-07T13:38:47;11.02;;;1.45;;
23884;SDS011;12123;53.088;7.392;2022-12-07T13:46:15;5.40;;;1.00;;
23884;SDS011;12123;53.088;7.392;2022-12-07T13:48:47;5.57;;;1.25;;
23884;SDS011;12123;53.088;7.392;2022-12-07T13:51:22;4.13;;;0.90;;
23884;SDS011;12123;53.088;7.392;2022-12-07T13:53:52;4.22;;;1.05;;
23884;SDS011;12123;53.088;7.392;2022-12-07T13:56:20;10.45;;;1.40;;
23884;SDS011;12123;53.088;7.392;2022-12-07T13:58:48;11.23;;;1.55;;
23884;SDS011;12123;53.088;7.392;2022-12-07T14:01:15;6.55;;;1.00;;
23884;SDS011;12123;53.088;7.392;2022-12-07T14:03:43;10.02;;;1.20;;
23884;SDS011;12123;53.088;7.392;2022-12-07T14:08:37;6.70;;;1.60;;
23884;SDS011;12123;53.088;7.392;2022-12-07T14:11:04;6.00;;;1.30;;
23884;SDS011;12123;53.088;7.392;2022-12-07T14:13:35;7.55;;;1.00;;
23884;SDS011;12123;53.088;7.392;2022-12-07T14:18:56;11.48;;;1.30;;
23884;SDS011;12123;53.088;7.392;2022-12-07T14:21:24;7.57;;;1.27;;
23884;SDS011;12123;53.088;7.392;2022-12-07T14:24:08;3.15;;;1.48;;
23884;SDS011;12123;53.088;7.392;2022-12-07T14:26:37;3.05;;;1.25;;
23884;SDS011;12123;53.088;7.392;2022-12-07T14:31:51;8.25;;;1.67;;
23884;SDS011;12123;53.088;7.392;2022-12-07T14:34:22;3.67;;;1.20;;
23884;SDS011;12123;53.088;7.392;2022-12-07T14:36:49;4.32;;;1.60;;
23884;SDS011;12123;53.088;7.392;2022-12-07T14:39:16;6.43;;;1.73;;
23884;SDS011;12123;53.088;7.392;2022-12-07T14:41:44;5.25;;;1.73;;
23884;SDS011;12123;53.088;7.392;2022-12-07T14:44:17;5.45;;;1.13;;
23884;SDS011;12123;53.088;7.392;2022-12-07T14:46:51;3.10;;;0.90;;
23884;SDS011;12123;53.088;7.392;2022-12-07T14:49:39;6.47;;;0.80;;
23884;SDS011;12123;53.088;7.392;2022-12-07T14:52:09;1.52;;;1.02;;
23884;SDS011;12123;53.088;7.392;2022-12-07T14:54:59;6.95;;;1.63;;
23884;SDS011;12123;53.088;7.392;2022-12-07T14:57:27;6.28;;;1.35;;
23884;SDS011;12123;53.088;7.392;2022-12-07T14:59:54;7.97;;;2.40;;
23884;SDS011;12123;53.088;7.392;2022-12-07T15:02:21;5.30;;;1.67;;
23884;SDS011;12123;53.088;7.392;2022-12-07T15:04:48;5.55;;;2.35;;
23884;SDS011;12123;53.088;7.392;2022-12-07T15:07:19;6.43;;;2.40;;
23884;SDS011;12123;53.088;7.392;2022-12-07T15:09:47;6.07;;;2.60;;
23884;SDS011;12123;53.088;7.392;2022-12-07T15:12:15;8.13;;;3.03;;
23884;SDS011;12123;53.088;7.392;2022-12-07T15:14:42;9.48;;;2.85;;
23884;SDS011;12123;53.088;7.392;2022-12-07T15:17:10;7.43;;;2.60;;
23884;SDS011;12123;53.088;7.392;2022-12-07T15:19:56;5.72;;;2.50;;
23884;SDS011;12123;53.088;7.392;2022-12-07T15:22:23;11.95;;;2.88;;
23884;SDS011;12123;53.088;7.392;2022-12-07T15:24:51;9.18;;;2.85;;
23884;SDS011;12123;53.088;7.392;2022-12-07T15:27:18;9.48;;;2.30;;
23884;SDS011;12123;53.088;7.392;2022-12-07T15:29:45;10.93;;;3.42;;
23884;SDS011;12123;53.088;7.392;2022-12-07T15:32:12;6.78;;;2.92;;
23884;SDS011;12123;53.088;7.392;2022-12-07T15:34:39;10.50;;;3.25;;
23884;SDS011;12123;53.088;7.392;2022-12-07T15:37:07;11.55;;;3.20;;
23884;SDS011;12123;53.088;7.392;2022-12-07T15:39:35;5.30;;;2.35;;
23884;SDS011;12123;53.088;7.392;2022-12-07T15:42:02;5.50;;;2.25;;
23884;SDS011;12123;53.088;7.392;2022-12-07T15:44:30;6.43;;;3.05;;
23884;SDS011;12123;53.088;7.392;2022-12-07T15:47:16;5.97;;;2.92;;
23884;SDS011;12123;53.088;7.392;2022-12-07T15:49:43;10.18;;;3.00;;
23884;SDS011;12123;53.088;7.392;2022-12-07T15:52:10;9.05;;;2.38;;
23884;SDS011;12123;53.088;7.392;2022-12-07T15:54:38;11.45;;;2.58;;
23884;SDS011;12123;53.088;7.392;2022-12-07T15:57:05;5.80;;;1.65;;
23884;SDS011;12123;53.088;7.392;2022-12-07T15:59:32;7.47;;;1.60;;
23884;SDS011;12123;53.088;7.392;2022-12-07T16:02:00;3.70;;;1.40;;
23884;SDS011;12123;53.088;7.392;2022-12-07T16:04:27;4.13;;;1.30;;
23884;SDS011;12123;53.088;7.392;2022-12-07T16:06:57;6.57;;;1.20;;
23884;SDS011;12123;53.088;7.392;2022-12-07T16:09:25;2.88;;;1.30;;
23884;SDS011;12123;53.088;7.392;2022-12-07T16:11:52;2.28;;;0.95;;
23884;SDS011;12123;53.088;7.392;2022-12-07T16:14:20;4.85;;;1.45;;
23884;SDS011;12123;53.088;7.392;2022-12-07T16:16:47;5.70;;;1.45;;
23884;SDS011;12123;53.088;7.392;2022-12-07T16:19:14;2.20;;;1.10;;
23884;SDS011;12123;53.088;7.392;2022-12-07T16:21:41;5.63;;;1.65;;
23884;SDS011;12123;53.088;7.392;2022-12-07T16:24:09;5.18;;;1.38;;
23884;SDS011;12123;53.088;7.392;2022-12-07T16:26:36;8.25;;;1.35;;
23884;SDS011;12123;53.088;7.392;2022-12-07T16:29:03;5.18;;;1.58;;
23884;SDS011;12123;53.088;7.392;2022-12-07T16:31:30;7.13;;;1.70;;
23884;SDS011;12123;53.088;7.392;2022-12-07T16:33:58;6.78;;;2.35;;
23884;SDS011;12123;53.088;7.392;2022-12-07T16:36:25;6.60;;;1.77;;
23884;SDS011;12123;53.088;7.392;2022-12-07T16:39:13;6.25;;;1.70;;
23884;SDS011;12123;53.088;7.392;2022-12-07T16:41:40;8.60;;;1.80;;
23884;SDS011;12123;53.088;7.392;2022-12-07T16:44:10;8.27;;;1.92;;
23884;SDS011;12123;53.088;7.392;2022-12-07T16:46:38;3.97;;;1.70;;
23884;SDS011;12123;53.088;7.392;2022-12-07T16:49:06;15.60;;;2.92;;
23884;SDS011;12123;53.088;7.392;2022-12-07T16:51:33;7.68;;;2.10;;
23884;SDS011;12123;53.088;7.392;2022-12-07T16:54:03;7.78;;;1.85;;
23884;SDS011;12123;53.088;7.392;2022-12-07T16:56:30;6.72;;;2.33;;
23884;SDS011;12123;53.088;7.392;2022-12-07T16:58:58;4.68;;;2.60;;
23884;SDS011;12123;53.088;7.392;2022-12-07T17:01:25;7.45;;;2.42;;
23884;SDS011;12123;53.088;7.392;2022-12-07T17:03:55;9.40;;;2.88;;
23884;SDS011;12123;53.088;7.392;2022-12-07T17:06:24;6.65;;;2.80;;
23884;SDS011;12123;53.088;7.392;2022-12-07T17:08:51;9.52;;;3.80;;
23884;SDS011;12123;53.088;7.392;2022-12-07T17:11:20;12.10;;;3.72;;
23884;SDS011;12123;53.088;7.392;2022-12-07T17:13:47;7.35;;;2.70;;